To NAV CANADA Home Page Login to a new session Search on AWWS site Disclaimer Vers la page française équivalente Tips FAQ What's new on the site To the Forecasts and Observations / NOTAM section To "File a Flight Plan" website Publications and other links Update of the User's profile FIC Telephone Numbers My Weather Data Folder Route Weather Data Regional Weather Data Local Weather Data To the Forecasts and Observations / NOTAM section
Request Generated 10/19/2018 at 15:33:04 UTC . Weather information available at that time is displayed.

METAR/TAF

CRANBROOK/CANADIAN ROCKIES INTL/BC    

METAR CYXC 191500Z 19003KT 25SM FEW100 FEW240 M01/M02 A3039 RMK AC1CI2 AC TR SLP327=
METAR CYXC 191400Z 00000KT 25SM BKN240 M02/M02 A3037 RMK CI5 SLP315=
METAR CYXC 191300Z 21003KT 25SM SKC M01/M01 A3035 RMK FROIN SLP308=

TAF CYXC 191238Z 1913/2001 VRB03KT P6SM SCT240
RMK NXT FCST BY 191900Z=
Your time UTC time
Weather data provided by Environment Canada and NAV CANADA